Time;durP1;ratioP1;P1;durP2;ratioP2;P2;SDS_P1;SDS_P2;PMS_P1;PMS_P2;Temp;Humidity;BMP_temperature;BMP_pressure;BME280_temperature;BME280_humidity;BME280_pressure;Samples;Min_cycle;Max_cycle;Signal;HPM_P1;HPM_P2
2023/01/13 00:01:45;;;;;;;0.20;0.20;;;;;;;7.07;100.00;95676.34;5051219;28;20207;-72
2023/01/13 00:04:31;;;;;;;0.20;0.20;;;;;;;7.06;100.00;95669.41;5053439;28;20242;-75
2023/01/13 00:07:17;;;;;;;0.20;0.20;;;;;;;7.09;100.00;95668.94;5051366;28;20039;-75
2023/01/13 00:10:03;;;;;;;0.20;0.20;;;;;;;7.06;100.00;95666.75;5051957;28;20370;-75
2023/01/13 00:12:49;;;;;;;0.13;0.13;;;;;;;7.07;100.00;95660.38;5041740;28;20064;-75
2023/01/13 00:15:34;;;;;;;0.20;0.20;;;;;;;7.12;100.00;95663.09;5051045;28;20123;-75
2023/01/13 00:18:20;;;;;;;0.20;0.20;;;;;;;7.14;100.00;95666.31;5052939;28;20052;-74
2023/01/13 00:21:11;;;;;;;0.20;0.20;;;;;;;7.12;100.00;95655.94;5051264;28;20289;-75
2023/01/13 00:23:56;;;;;;;0.20;0.20;;;;;;;7.14;100.00;95658.34;5050351;28;20090;-75
2023/01/13 00:26:42;;;;;;;0.20;0.20;;;;;;;7.12;100.00;95647.94;5052131;28;20352;-75
2023/01/13 00:29:28;;;;;;;0.10;0.10;;;;;;;7.10;100.00;95655.38;5051615;28;20513;-75
2023/01/13 00:32:14;;;;;;;0.20;0.20;;;;;;;7.11;100.00;95648.19;5037506;28;20131;-74
2023/01/13 00:35:00;;;;;;;0.20;0.20;;;;;;;7.03;100.00;95637.97;5053944;28;20095;-75
2023/01/13 00:37:46;;;;;;;0.17;0.17;;;;;;;7.04;100.00;95650.22;5052866;28;20119;-73
2023/01/13 00:40:32;;;;;;;0.10;0.10;;;;;;;7.09;100.00;95632.50;5041253;28;20260;-75
2023/01/13 00:43:23;;;;;;;0.10;0.10;;;;;;;7.19;100.00;95645.13;5041857;28;20047;-74
2023/01/13 00:46:11;;;;;;;0.10;0.10;;;;;;;7.22;100.00;95633.97;5055803;28;20652;-75
2023/01/13 00:48:57;;;;;;;0.20;0.20;;;;;;;7.19;100.00;95635.28;5056283;28;20036;-75
2023/01/13 00:51:43;;;;;;;0.13;0.13;;;;;;;7.14;100.00;95629.06;5054170;28;20075;-75
2023/01/13 00:54:29;;;;;;;0.13;0.13;;;;;;;7.19;100.00;95624.63;5054380;28;20060;-75
2023/01/13 00:57:15;;;;;;;0.20;0.20;;;;;;;7.19;100.00;95629.94;5054888;28;20193;-74
2023/01/13 01:00:01;;;;;;;0.10;0.10;;;;;;;7.04;100.00;95639.59;5056716;28;20039;-76
2023/01/13 01:02:47;;;;;;;0.20;0.20;;;;;;;7.13;100.00;95608.84;5056089;28;20071;-74
2023/01/13 01:05:33;;;;;;;0.20;0.20;;;;;;;7.28;100.00;95627.66;5055821;28;20278;-76
2023/01/13 01:08:19;;;;;;;0.20;0.20;;;;;;;7.20;100.00;95618.25;5054429;28;20060;-76
2023/01/13 01:11:08;;;;;;;0.20;0.20;;;;;;;7.10;100.00;95618.13;5056436;28;20416;-75
2023/01/13 01:13:56;;;;;;;0.15;0.15;;;;;;;7.20;100.00;95641.41;5054490;28;20051;-76
2023/01/13 01:16:42;;;;;;;0.20;0.20;;;;;;;7.20;100.00;95630.75;5048160;28;20036;-74
2023/01/13 01:19:27;;;;;;;0.20;0.20;;;;;;;7.20;100.00;95633.41;5055827;28;20055;-75
2023/01/13 01:22:13;;;;;;;0.10;0.10;;;;;;;7.18;100.00;95625.69;5051157;28;20071;-75
2023/01/13 01:24:59;;;;;;;0.20;0.20;;;;;;;7.21;100.00;95625.19;5053086;28;20631;-74
2023/01/13 01:27:45;;;;;;;0.20;0.20;;;;;;;7.19;100.00;95629.16;5055590;28;20063;-74
2023/01/13 01:30:31;;;;;;;0.10;0.10;;;;;;;7.12;100.00;95626.66;5052173;28;20041;-75
2023/01/13 01:33:17;;;;;;;0.10;0.10;;;;;;;7.21;100.00;95627.03;5050675;28;20747;-74
2023/01/13 01:36:03;;;;;;;0.20;0.20;;;;;;;7.25;100.00;95623.66;5053890;28;20051;-76
2023/01/13 01:38:49;;;;;;;0.20;0.20;;;;;;;7.27;100.00;95620.72;5066880;28;20279;-74
2023/01/13 01:41:36;;;;;;;0.20;0.20;;;;;;;7.15;100.00;95610.19;5053503;28;20430;-76
2023/01/13 01:44:40;;;;;;;0.10;0.10;;;;;;;7.16;100.00;95611.00;5054296;28;20495;-76
2023/01/13 01:47:28;;;;;;;0.10;0.10;;;;;;;7.22;100.00;95610.00;5053945;28;20032;-75
2023/01/13 01:50:17;;;;;;;0.10;0.10;;;;;;;7.14;100.00;95602.47;5051924;28;20134;-76
2023/01/13 01:53:12;;;;;;;0.20;0.20;;;;;;;7.17;100.00;95596.66;5066734;28;20132;-76
2023/01/13 01:55:59;;;;;;;0.10;0.10;;;;;;;7.27;100.00;95602.09;5054947;28;20350;-75
2023/01/13 01:58:50;;;;;;;0.20;0.20;;;;;;;7.16;100.00;95587.06;5053587;28;20071;-73
2023/01/13 02:01:37;;;;;;;0.20;0.20;;;;;;;7.13;100.00;95592.88;5053174;28;20414;-76
2023/01/13 02:04:29;;;;;;;0.20;0.20;;;;;;;7.15;100.00;95596.09;5052813;28;20048;-76
2023/01/13 02:07:22;;;;;;;;;;;;;;;7.17;100.00;95596.66;5052304;28;20126;-74
2023/01/13 02:10:13;;;;;;;0.10;0.10;;;;;;;7.17;100.00;95586.03;5053019;28;19924;-76
2023/01/13 02:13:03;;;;;;;0.10;0.10;;;;;;;7.14;100.00;95591.81;5051300;28;20515;-76
2023/01/13 02:16:01;;;;;;;0.20;0.20;;;;;;;7.20;100.00;95590.84;5051954;28;20153;-75
2023/01/13 02:19:04;;;;;;;0.10;0.10;;;;;;;7.19;100.00;95595.38;5051307;28;20036;-74
2023/01/13 02:22:10;;;;;;;0.10;0.10;;;;;;;7.13;100.00;95599.00;5050662;28;20529;-74
2023/01/13 02:25:14;;;;;;;0.20;0.20;;;;;;;7.15;100.00;95585.44;5028953;28;20075;-75
2023/01/13 02:28:27;;;;;;;0.20;0.20;;;;;;;7.10;100.00;95580.09;5051767;28;20697;-75
2023/01/13 02:34:35;;;;;;;0.20;0.20;;;;;;;7.14;100.00;95551.91;5037762;28;20298;-76
2023/01/13 02:37:30;;;;;;;0.20;0.20;;;;;;;7.09;100.00;95573.16;5051855;28;20325;-74
2023/01/13 02:40:23;;;;;;;0.17;0.17;;;;;;;7.14;100.00;95555.38;5051160;28;20386;-74
2023/01/13 02:47:03;;;;;;;0.20;0.20;;;;;;;7.26;100.00;95566.72;5051090;28;20143;-75
2023/01/13 02:49:54;;;;;;;0.20;0.20;;;;;;;7.12;100.00;95607.25;5054122;28;20043;-73
2023/01/13 02:52:54;;;;;;;0.20;0.20;;;;;;;6.79;100.00;95608.94;5035217;28;20044;-75
2023/01/13 02:55:45;;;;;;;0.10;0.10;;;;;;;6.58;100.00;95593.75;5043138;28;20245;-75
2023/01/13 02:58:34;;;;;;;0.20;0.20;;;;;;;6.33;100.00;95628.72;5050581;28;20152;-75
2023/01/13 03:01:20;;;;;;;0.10;0.10;;;;;;;6.23;100.00;95623.25;5050522;28;20051;-76
2023/01/13 03:04:44;;;;;;;0.10;0.10;;;;;;;6.23;100.00;95629.38;5052212;28;20416;-76
2023/01/13 03:07:29;;;;;;;0.17;0.17;;;;;;;6.16;100.00;95615.44;5051527;28;20044;-76
2023/01/13 03:10:43;;;;;;;0.20;0.20;;;;;;;6.03;100.00;95623.69;5052750;28;20253;-76
2023/01/13 03:13:59;;;;;;;0.20;0.20;;;;;;;6.10;100.00;95617.19;5051279;28;20048;-74
2023/01/13 03:17:01;;;;;;;0.10;0.10;;;;;;;6.01;100.00;95623.16;5052141;28;20245;-75
2023/01/13 03:19:53;;;;;;;0.20;0.20;;;;;;;6.00;100.00;95619.69;5037377;28;20064;-75
2023/01/13 03:22:49;;;;;;;0.20;0.20;;;;;;;5.94;100.00;95630.44;5050415;28;20035;-77
2023/01/13 03:25:48;;;;;;;0.20;0.20;;;;;;;5.94;100.00;95607.34;5048290;28;20063;-76
2023/01/13 03:28:43;;;;;;;0.10;0.10;;;;;;;6.02;100.00;95614.13;5052709;28;20033;-76
2023/01/13 03:31:35;;;;;;;0.15;0.15;;;;;;;6.02;100.00;95609.63;5049595;28;20048;-76
2023/01/13 03:34:29;;;;;;;0.20;0.20;;;;;;;6.05;100.00;95626.91;5048605;28;20301;-76
2023/01/13 03:37:20;;;;;;;0.10;0.10;;;;;;;6.04;100.00;95620.00;5051825;28;20040;-76
2023/01/13 03:40:25;;;;;;;0.20;0.20;;;;;;;6.06;100.00;95617.91;5052008;28;20036;-75
2023/01/13 03:46:43;;;;;;;0.20;0.20;;;;;;;5.94;100.00;95588.78;5051816;28;20100;-75
2023/01/13 03:49:40;;;;;;;0.10;0.10;;;;;;;5.96;100.00;95612.44;5051336;28;20105;-76
2023/01/13 03:52:52;;;;;;;0.20;0.20;;;;;;;5.97;100.00;95614.03;5037745;28;20152;-76
2023/01/13 03:55:44;;;;;;;0.20;0.20;;;;;;;5.97;100.00;95609.53;5050523;28;20563;-76
2023/01/13 03:58:36;;;;;;;0.10;0.10;;;;;;;5.98;100.00;95595.19;5052310;28;20098;-76
2023/01/13 04:01:34;;;;;;;;;;;;;;;6.00;100.00;95598.44;5050577;28;20284;-73
2023/01/13 04:04:30;;;;;;;0.10;0.10;;;;;;;5.94;100.00;95599.38;5050980;28;19920;-75
2023/01/13 04:07:34;;;;;;;0.13;0.13;;;;;;;5.82;100.00;95585.34;5051555;28;20040;-74
2023/01/13 04:10:27;;;;;;;0.10;0.10;;;;;;;5.95;100.00;95557.72;5051311;28;20396;-75
2023/01/13 04:13:20;;;;;;;0.10;0.10;;;;;;;5.90;100.00;95555.72;5055626;28;20044;-77
2023/01/13 04:16:07;;;;;;;0.20;0.20;;;;;;;5.82;100.00;95567.53;5056089;28;20036;-77
2023/01/13 04:18:53;;;;;;;0.20;0.20;;;;;;;5.89;100.00;95588.63;5053506;28;20163;-76
2023/01/13 04:21:39;;;;;;;0.20;0.20;;;;;;;5.85;100.00;95590.19;5051928;28;20545;-77
2023/01/13 04:24:25;;;;;;;0.17;0.17;;;;;;;5.84;100.00;95626.56;5054019;28;20036;-75
2023/01/13 04:27:11;;;;;;;0.10;0.10;;;;;;;5.74;100.00;95641.47;5056622;28;20037;-76
2023/01/13 04:29:57;;;;;;;0.20;0.20;;;;;;;5.63;100.00;95640.47;5053131;28;20997;-74
2023/01/13 04:32:42;;;;;;;0.22;0.22;;;;;;;5.68;100.00;95671.59;5054480;28;20040;-75
2023/01/13 04:35:29;;;;;;;0.10;0.10;;;;;;;5.61;100.00;95639.13;5054488;28;20041;-75
2023/01/13 04:38:17;;;;;;;0.10;0.10;;;;;;;5.52;100.00;95628.06;5055464;28;20321;-74
2023/01/13 04:41:03;;;;;;;0.20;0.20;;;;;;;5.48;100.00;95606.50;5054992;28;20040;-77
2023/01/13 04:43:49;;;;;;;0.10;0.10;;;;;;;5.38;100.00;95648.78;5051345;28;20051;-75
2023/01/13 04:46:35;;;;;;;0.10;0.10;;;;;;;5.28;100.00;95659.97;5056332;28;20672;-75
2023/01/13 04:49:21;;;;;;;0.10;0.10;;;;;;;5.21;100.00;95669.09;5045019;28;20121;-76
2023/01/13 04:52:07;;;;;;;0.20;0.20;;;;;;;5.16;100.00;95622.06;5053566;28;20093;-75
2023/01/13 04:54:52;;;;;;;0.20;0.20;;;;;;;5.15;100.00;95561.31;5054373;28;20273;-76
2023/01/13 04:57:38;;;;;;;0.20;0.20;;;;;;;5.03;100.00;95582.53;5053193;28;20105;-77
2023/01/13 05:00:24;;;;;;;0.10;0.10;;;;;;;5.00;100.00;95597.06;5052309;28;20047;-76
2023/01/13 05:03:10;;;;;;;0.10;0.10;;;;;;;4.91;100.00;95601.13;5056432;28;20036;-76
2023/01/13 05:05:55;;;;;;;0.15;0.15;;;;;;;4.95;100.00;95623.47;5053475;28;20765;-75
2023/01/13 05:08:42;;;;;;;0.15;0.15;;;;;;;4.94;100.00;95610.47;5041478;28;20516;-75
2023/01/13 05:17:36;;;;;;;0.20;0.20;;;;;;;4.99;100.00;95598.13;5056056;28;20054;-76
2023/01/13 05:20:22;;;;;;;0.20;0.20;;;;;;;5.02;100.00;95596.84;5054851;28;20047;-74
2023/01/13 05:26:12;;;;;;;0.10;0.10;;;;;;;5.02;100.00;95629.47;5055587;28;20052;-75
2023/01/13 05:28:58;;;;;;;0.20;0.20;;;;;;;5.07;100.00;95631.44;5053363;28;20505;-74
2023/01/13 05:31:44;;;;;;;0.20;0.20;;;;;;;5.12;100.00;95638.66;5052862;28;20040;-73
2023/01/13 05:34:31;;;;;;;0.10;0.10;;;;;;;5.06;100.00;95623.69;5054794;28;20072;-75
2023/01/13 05:37:17;;;;;;;0.20;0.20;;;;;;;5.06;100.00;95600.66;5054015;28;20543;-75
2023/01/13 05:43:21;;;;;;;0.20;0.20;;;;;;;5.10;100.00;95587.72;5056551;28;20041;-75
2023/01/13 05:46:08;;;;;;;0.20;0.20;;;;;;;5.06;100.00;95598.00;5054195;28;20032;-73
2023/01/13 05:48:54;;;;;;;0.15;0.15;;;;;;;5.01;100.00;95598.69;5053587;28;20357;-75
2023/01/13 05:51:40;;;;;;;0.20;0.20;;;;;;;5.02;100.00;95626.81;5053167;28;20262;-75
2023/01/13 05:54:26;;;;;;;0.20;0.20;;;;;;;4.99;100.00;95594.66;5055239;28;20050;-74
2023/01/13 05:57:12;;;;;;;0.20;0.20;;;;;;;4.89;100.00;95597.09;5056471;28;20048;-75
2023/01/13 05:59:58;;;;;;;0.20;0.20;;;;;;;4.87;100.00;95607.13;5053713;28;20483;-73
2023/01/13 06:02:43;;;;;;;0.10;0.10;;;;;;;4.75;100.00;95584.09;5042144;28;20046;-73
2023/01/13 06:05:31;;;;;;;0.20;0.20;;;;;;;4.74;100.00;95595.72;5055412;28;20529;-75
2023/01/13 06:08:17;;;;;;;0.20;0.20;;;;;;;4.73;100.00;95607.34;5068505;28;20101;-73
2023/01/13 06:11:03;;;;;;;0.10;0.10;;;;;;;4.79;100.00;95600.34;5054918;28;20051;-74
2023/01/13 06:13:49;;;;;;;0.13;0.13;;;;;;;4.80;100.00;95609.09;5053804;28;20977;-76
2023/01/13 06:16:35;;;;;;;0.20;0.20;;;;;;;4.76;100.00;95616.72;5057968;28;20421;-73
2023/01/13 06:19:21;;;;;;;0.20;0.20;;;;;;;4.74;100.00;95622.22;5057230;28;20424;-71
2023/01/13 06:22:34;;;;;;;0.20;0.20;;;;;;;4.69;100.00;95638.03;5054514;28;20044;-73
2023/01/13 06:25:32;;;;;;;0.10;0.10;;;;;;;4.61;100.00;95641.03;5053983;28;20207;-73
2023/01/13 06:28:17;;;;;;;0.10;0.10;;;;;;;4.41;100.00;95635.25;5052939;28;20070;-74
2023/01/13 06:31:06;;;;;;;0.20;0.20;;;;;;;4.29;100.00;95631.81;5050568;28;20037;-74
2023/01/13 06:33:56;;;;;;;0.20;0.20;;;;;;;4.18;100.00;95633.38;5037371;28;20079;-76
2023/01/13 06:36:51;;;;;;;0.10;0.10;;;;;;;4.11;100.00;95630.84;5053446;28;20044;-75
2023/01/13 06:39:37;;;;;;;0.20;0.20;;;;;;;4.02;100.00;95631.41;5056072;28;20180;-76
2023/01/13 06:45:31;;;;;;;0.20;0.20;;;;;;;3.97;100.00;95621.50;5054752;28;20306;-75
2023/01/13 06:48:23;;;;;;;0.20;0.20;;;;;;;3.95;100.00;95628.84;5046646;28;20547;-75
2023/01/13 06:51:09;;;;;;;0.20;0.20;;;;;;;3.91;100.00;95625.84;5053458;28;20250;-77
2023/01/13 06:53:55;;;;;;;0.10;0.10;;;;;;;3.89;100.00;95629.75;5052185;28;20189;-75
2023/01/13 06:56:41;;;;;;;0.17;0.17;;;;;;;3.87;100.00;95624.69;5067998;28;20040;-76
2023/01/13 06:59:27;;;;;;;0.10;0.10;;;;;;;3.90;100.00;95631.38;5055930;28;20040;-75
2023/01/13 07:02:13;;;;;;;0.20;0.20;;;;;;;3.85;100.00;95636.53;5038980;28;20036;-75
2023/01/13 07:04:59;;;;;;;0.20;0.20;;;;;;;3.94;100.00;95637.81;5050830;28;20043;-77
2023/01/13 07:07:45;;;;;;;0.10;0.10;;;;;;;4.09;100.00;95643.50;5065886;28;20108;-75
2023/01/13 07:10:31;;;;;;;0.20;0.20;;;;;;;4.28;100.00;95654.00;5053636;28;20044;-76
2023/01/13 07:16:23;;;;;;;0.20;0.20;;;;;;;4.38;100.00;95655.06;5055312;28;20536;-75
2023/01/13 07:19:11;;;;;;;0.10;0.10;;;;;;;4.44;100.00;95661.31;5056907;28;20038;-76
2023/01/13 07:21:57;;;;;;;0.20;0.20;;;;;;;4.50;100.00;95655.06;5041392;28;20482;-75
2023/01/13 07:24:45;;;;;;;0.10;0.10;;;;;;;4.56;100.00;95654.16;5056446;28;20029;-76
2023/01/13 07:27:30;;;;;;;0.20;0.20;;;;;;;4.36;100.00;95651.84;5057611;28;20056;-75
2023/01/13 07:30:16;;;;;;;0.20;0.20;;;;;;;4.15;100.00;95657.69;5053314;28;20047;-76
2023/01/13 07:33:05;;;;;;;0.28;0.28;;;;;;;4.08;100.00;95664.91;5052365;28;20052;-76
2023/01/13 07:35:58;;;;;;;0.20;0.20;;;;;;;3.99;100.00;95671.56;5053680;28;20731;-76
2023/01/13 07:38:44;;;;;;;0.20;0.20;;;;;;;3.93;100.00;95667.97;5066865;28;20589;-76
2023/01/13 07:44:35;;;;;;;0.20;0.20;;;;;;;3.88;100.00;95676.59;5046146;28;20164;-76
2023/01/13 07:47:22;;;;;;;0.20;0.20;;;;;;;3.84;100.00;95678.09;5043408;28;20055;-75
2023/01/13 07:50:08;;;;;;;0.20;0.20;;;;;;;3.84;100.00;95682.56;5053134;28;20426;-75
2023/01/13 07:52:57;;;;;;;0.30;0.30;;;;;;;3.85;100.00;95682.34;5053078;28;20066;-76
2023/01/13 07:55:43;;;;;;;0.20;0.20;;;;;;;3.90;100.00;95673.75;5053327;28;20095;-75
2023/01/13 07:58:29;;;;;;;0.10;0.10;;;;;;;3.90;100.00;95676.38;5055366;28;20535;-76
2023/01/13 08:01:17;;;;;;;0.20;0.20;;;;;;;3.97;100.00;95682.41;5044351;28;20068;-75
2023/01/13 08:04:03;;;;;;;0.17;0.17;;;;;;;3.96;100.00;95691.34;5041300;28;20477;-76
2023/01/13 08:06:48;;;;;;;0.20;0.20;;;;;;;3.91;100.00;95684.09;5050555;28;20048;-73
2023/01/13 08:09:34;;;;;;;0.10;0.10;;;;;;;3.98;100.00;95683.19;5039654;28;20559;-76
2023/01/13 08:15:25;;;;;;;0.20;0.20;;;;;;;4.40;100.00;95691.91;5053346;28;20097;-74
2023/01/13 08:18:12;;;;;;;0.20;0.20;;;;;;;4.35;100.00;95712.97;5052824;28;20044;-75
2023/01/13 08:21:06;;;;;;;0.20;0.20;;;;;;;4.36;100.00;95694.22;5053386;28;20054;-74
2023/01/13 08:23:52;;;;;;;0.28;0.28;;;;;;;4.50;100.00;95694.81;5052962;28;20063;-75
2023/01/13 08:26:38;;;;;;;0.20;0.20;;;;;;;4.64;100.00;95711.31;5054368;28;20416;-77
2023/01/13 08:29:24;;;;;;;0.20;0.20;;;;;;;4.65;100.00;95708.41;5053289;28;20421;-75
2023/01/13 08:32:10;;;;;;;0.20;0.20;;;;;;;4.66;100.00;95706.56;5053868;28;20127;-76
2023/01/13 08:34:55;;;;;;;0.20;0.20;;;;;;;4.58;100.00;95707.72;5051901;28;20344;-75
2023/01/13 08:37:43;;;;;;;0.20;0.20;;;;;;;4.70;100.00;95713.03;5043178;28;20040;-76
2023/01/13 08:40:29;;;;;;;0.20;0.20;;;;;;;4.83;100.00;95699.56;5052883;28;20051;-75
2023/01/13 08:43:15;;;;;;;0.20;0.20;;;;;;;4.99;100.00;95708.69;5053467;28;20047;-76
2023/01/13 08:46:03;;;;;;;0.20;0.20;;;;;;;5.03;100.00;95709.81;5053821;28;20125;-78
2023/01/13 08:48:49;;;;;;;0.20;0.20;;;;;;;5.03;100.00;95707.16;5052893;28;20118;-77
2023/01/13 08:51:34;;;;;;;0.15;0.15;;;;;;;4.98;100.00;95707.88;5050248;28;20212;-78
2023/01/13 08:54:20;;;;;;;0.20;0.20;;;;;;;5.12;100.00;95716.38;5055552;28;20079;-77
2023/01/13 08:57:06;;;;;;;0.20;0.20;;;;;;;5.27;100.00;95721.22;5056597;28;20052;-77
2023/01/13 08:59:52;;;;;;;0.20;0.20;;;;;;;5.20;100.00;95731.94;5056791;28;20507;-75
2023/01/13 09:02:38;;;;;;;0.20;0.20;;;;;;;5.35;100.00;95728.81;5055854;28;20415;-77
2023/01/13 09:05:25;;;;;;;0.20;0.20;;;;;;;5.22;100.00;95737.03;5067667;28;20043;-77
2023/01/13 09:08:11;;;;;;;0.10;0.10;;;;;;;5.09;100.00;95732.75;5056703;28;20047;-77
2023/01/13 09:10:57;;;;;;;0.20;0.20;;;;;;;4.95;100.00;95758.69;5054220;28;20047;-77
2023/01/13 09:13:43;;;;;;;0.10;0.10;;;;;;;4.84;100.00;95742.78;5057413;28;20040;-78
2023/01/13 09:16:29;;;;;;;0.20;0.20;;;;;;;4.83;100.00;95747.28;5055456;28;20041;-77
2023/01/13 09:19:15;;;;;;;0.20;0.20;;;;;;;4.80;100.00;95742.44;5068905;28;20075;-79
2023/01/13 09:22:01;;;;;;;0.20;0.20;;;;;;;4.88;100.00;95743.94;5053641;28;20271;-79
2023/01/13 09:24:47;;;;;;;0.20;0.20;;;;;;;5.02;100.00;95751.44;5056594;28;20036;-78
2023/01/13 09:27:32;;;;;;;0.30;0.30;;;;;;;5.32;100.00;95756.63;5058691;28;20141;-77
2023/01/13 09:30:18;;;;;;;0.30;0.30;;;;;;;5.62;100.00;95762.81;5055327;28;20591;-78
2023/01/13 09:36:08;;;;;;;0.30;0.30;;;;;;;7.08;100.00;95755.09;5057105;28;20548;-78
2023/01/13 09:38:54;;;;;;;0.30;0.30;;;;;;;8.13;100.00;95755.94;5054595;28;20182;-78
2023/01/13 09:45:07;;;;;;;0.30;0.30;;;;;;;9.84;100.00;95756.78;5054622;28;21287;-79
2023/01/13 09:48:10;;;;;;;0.47;0.40;;;;;;;10.76;100.00;95763.25;5058373;28;20119;-79
2023/01/13 09:51:13;;;;;;;0.20;0.20;;;;;;;10.03;100.00;95766.75;5055903;28;20047;-78
2023/01/13 09:54:04;;;;;;;0.20;0.20;;;;;;;9.43;100.00;95772.59;5058338;28;20166;-79
2023/01/13 09:56:50;;;;;;;0.30;0.30;;;;;;;9.40;100.00;95771.22;5056102;28;20044;-78
2023/01/13 09:59:37;;;;;;;0.20;0.20;;;;;;;7.99;100.00;95779.50;5052426;28;20070;-79
2023/01/13 10:02:41;;;;;;;0.20;0.20;;;;;;;7.74;100.00;95794.13;5054549;28;20754;-79
2023/01/13 10:05:37;;;;;;;0.20;0.20;;;;;;;7.27;100.00;95788.38;5056081;28;20039;-78
2023/01/13 10:08:31;;;;;;;0.45;0.40;;;;;;;8.88;100.00;95766.59;5041039;28;20133;-76
2023/01/13 10:14:41;;;;;;;0.30;0.30;;;;;;;11.85;100.00;95767.19;5055952;28;20040;-79
2023/01/13 10:17:38;;;;;;;0.38;0.30;;;;;;;12.97;97.72;95763.91;5054033;28;20765;-77
2023/01/13 10:20:39;;;;;;;0.30;0.28;;;;;;;12.54;90.42;95765.56;5068528;28;20127;-78
2023/01/13 10:23:42;;;;;;;0.40;0.40;;;;;;;13.60;93.12;95772.00;5056068;28;20568;-78
2023/01/13 10:26:36;;;;;;;0.30;0.30;;;;;;;14.53;70.35;95777.16;5055250;28;20834;-79
2023/01/13 10:29:26;;;;;;;0.20;0.20;;;;;;;14.22;68.85;95789.06;5058266;28;20064;-79
2023/01/13 10:32:12;;;;;;;0.50;0.40;;;;;;;15.28;67.89;95759.06;5069160;28;20040;-79
2023/01/13 10:34:59;;;;;;;0.30;0.30;;;;;;;15.62;76.28;95749.06;5054276;28;20324;-79
2023/01/13 10:37:56;;;;;;;0.30;0.30;;;;;;;15.97;49.96;95766.50;5048221;28;20228;-79
2023/01/13 10:40:58;;;;;;;0.30;0.30;;;;;;;15.82;51.81;95751.41;5054755;28;20591;-79
2023/01/13 10:43:50;;;;;;;0.30;0.30;;;;;;;16.44;49.93;95758.00;5066662;28;20036;-79
2023/01/13 10:46:56;;;;;;;0.20;0.20;;;;;;;16.58;46.93;95747.16;5056097;28;20032;-80
2023/01/13 10:49:42;;;;;;;0.10;0.10;;;;;;;13.50;77.76;95761.34;5056129;28;20384;-79
2023/01/13 10:52:31;;;;;;;0.20;0.20;;;;;;;12.29;86.78;95761.09;5055239;28;20039;-79
2023/01/13 10:55:27;;;;;;;0.10;0.10;;;;;;;13.16;75.17;95755.19;5054716;28;20048;-79
2023/01/13 10:58:17;;;;;;;0.30;0.30;;;;;;;15.08;62.42;95745.09;5056068;28;20516;-79
2023/01/13 11:01:05;;;;;;;0.30;0.30;;;;;;;15.50;51.20;95749.53;5054665;28;20048;-79
2023/01/13 11:03:54;;;;;;;0.20;0.20;;;;;;;13.74;64.19;95764.06;5053102;28;20168;-79
2023/01/13 11:06:44;;;;;;;0.10;0.10;;;;;;;14.90;50.59;95765.59;5054959;28;20574;-80
2023/01/13 11:09:31;;;;;;;0.15;0.15;;;;;;;13.34;63.30;95767.94;5055283;28;20028;-78
2023/01/13 11:12:32;;;;;;;0.20;0.20;;;;;;;14.51;68.84;95769.38;5052506;28;20056;-77
2023/01/13 11:15:23;;;;;;;0.20;0.20;;;;;;;12.53;81.20;95759.38;5053942;28;20558;-79
2023/01/13 11:18:50;;;;;;;0.20;0.20;;;;;;;10.67;97.30;95784.38;5053736;28;20311;-78
2023/01/13 11:21:45;;;;;;;0.10;0.10;;;;;;;9.81;100.00;95792.06;5041820;28;20307;-78
2023/01/13 11:24:44;;;;;;;0.10;0.10;;;;;;;9.92;100.00;95791.03;5053977;28;20532;-79
2023/01/13 11:27:46;;;;;;;0.10;0.10;;;;;;;10.04;100.00;95783.63;5053228;28;20044;-79
2023/01/13 11:30:38;;;;;;;;;;;;;;;9.58;100.00;95791.41;5053615;28;20332;-80
2023/01/13 11:33:33;;;;;;;0.10;0.10;;;;;;;9.33;100.00;95786.66;4352217;28;9999930;-79
2023/01/13 11:36:23;;;;;;;0.10;0.10;;;;;;;8.69;100.00;95802.69;5053425;28;20044;-78
2023/01/13 11:39:29;;;;;;;0.10;0.10;;;;;;;8.32;100.00;95821.19;5053075;28;20706;-78
2023/01/13 11:42:23;;;;;;;0.10;0.10;;;;;;;8.25;100.00;95794.75;5050196;28;20159;-78
2023/01/13 11:45:23;;;;;;;0.10;0.10;;;;;;;8.14;100.00;95795.66;5052849;28;20479;-78
2023/01/13 11:48:20;;;;;;;0.17;0.17;;;;;;;7.87;100.00;95792.16;5052042;28;20028;-79
2023/01/13 11:51:12;;;;;;;0.10;0.10;;;;;;;7.75;100.00;95790.41;5065471;28;20157;-78
2023/01/13 11:54:16;;;;;;;0.10;0.10;;;;;;;7.53;100.00;95798.34;5053665;28;20665;-76
2023/01/13 11:57:20;;;;;;;0.10;0.10;;;;;;;7.42;100.00;95814.44;5053212;28;20041;-78
2023/01/13 12:00:38;;;;;;;0.20;0.20;;;;;;;7.09;100.00;95841.88;5055706;28;20048;-79
2023/01/13 12:03:47;;;;;;;0.10;0.10;;;;;;;6.86;100.00;95811.69;5037190;28;20044;-77
2023/01/13 12:06:40;;;;;;;0.10;0.10;;;;;;;6.75;100.00;95841.81;5054234;28;20549;-77
2023/01/13 12:09:35;;;;;;;0.10;0.10;;;;;;;6.71;100.00;95832.69;5043469;28;20040;-77
2023/01/13 12:12:36;;;;;;;0.20;0.20;;;;;;;6.93;100.00;95808.88;5051182;28;20040;-76
2023/01/13 12:15:29;;;;;;;0.20;0.20;;;;;;;7.66;100.00;95823.03;5052438;28;20078;-78
2023/01/13 12:18:20;;;;;;;0.10;0.10;;;;;;;7.56;100.00;95823.69;5050919;28;20497;-80
2023/01/13 12:21:19;;;;;;;0.10;0.10;;;;;;;7.46;100.00;95812.88;5061752;28;20483;-78
2023/01/13 12:24:17;;;;;;;0.20;0.20;;;;;;;7.41;100.00;95808.31;5053375;28;20113;-78
2023/01/13 12:27:17;;;;;;;0.10;0.10;;;;;;;7.56;100.00;95810.38;5066027;28;20152;-78
2023/01/13 12:30:17;;;;;;;0.20;0.20;;;;;;;7.85;100.00;95807.56;5038877;28;20384;-78
2023/01/13 12:33:24;;;;;;;0.20;0.20;;;;;;;8.17;100.00;95805.03;5055746;28;20052;-76
2023/01/13 12:36:13;;;;;;;0.20;0.20;;;;;;;8.53;100.00;95815.06;5055232;28;20048;-77
2023/01/13 12:39:29;;;;;;;0.20;0.20;;;;;;;8.28;100.00;95812.91;5056339;28;20222;-78
2023/01/13 12:45:37;;;;;;;0.10;0.10;;;;;;;7.37;100.00;95793.84;5054962;28;20036;-78
2023/01/13 12:48:47;;;;;;;0.20;0.20;;;;;;;7.47;100.00;95788.69;5053811;28;20033;-77
2023/01/13 12:51:36;;;;;;;0.10;0.10;;;;;;;7.57;100.00;95780.03;5054768;28;20137;-77
2023/01/13 12:54:52;;;;;;;0.20;0.20;;;;;;;7.37;100.00;95791.19;5055951;28;20638;-76
2023/01/13 12:57:39;;;;;;;0.20;0.20;;;;;;;6.90;100.00;95818.13;5054172;28;20055;-78
2023/01/13 13:00:39;;;;;;;0.20;0.20;;;;;;;6.98;100.00;95820.41;5056726;28;20088;-78
2023/01/13 13:03:30;;;;;;;0.20;0.20;;;;;;;10.16;100.00;95834.19;5052601;28;20540;-77
2023/01/13 13:06:22;;;;;;;0.32;0.32;;;;;;;11.51;100.00;95843.84;5055970;28;20040;-78
2023/01/13 13:09:29;;;;;;;0.20;0.20;;;;;;;10.43;100.00;95823.38;5054729;28;20505;-78
2023/01/13 13:15:49;;;;;;;0.20;0.20;;;;;;;8.69;100.00;95836.56;5049756;28;20048;-76
2023/01/13 13:18:35;;;;;;;0.20;0.20;;;;;;;8.03;100.00;95820.59;5043239;28;20036;-77
2023/01/13 13:21:21;;;;;;;0.20;0.20;;;;;;;8.17;100.00;95821.84;5053703;28;20116;-76
2023/01/13 13:24:09;;;;;;;0.20;0.20;;;;;;;8.51;100.00;95811.84;5070092;28;20044;-76
2023/01/13 13:26:56;;;;;;;0.20;0.20;;;;;;;8.34;100.00;95811.91;5057405;28;20041;-77
2023/01/13 13:29:54;;;;;;;0.10;0.10;;;;;;;8.08;100.00;95853.41;5039754;28;20298;-77
2023/01/13 13:33:08;;;;;;;0.20;0.20;;;;;;;7.58;100.00;95834.91;5057315;28;20514;-77
2023/01/13 13:36:11;;;;;;;0.20;0.20;;;;;;;7.41;100.00;95847.44;5053358;28;20036;-76
2023/01/13 13:49:02;;;;;;;0.20;0.20;;;;;;;6.65;100.00;95860.25;5056375;28;20525;-76
2023/01/13 13:52:03;;;;;;;0.20;0.20;;;;;;;6.70;100.00;95861.16;5053099;28;20428;-75
2023/01/13 13:54:52;;;;;;;0.20;0.20;;;;;;;6.83;100.00;95851.25;5054437;28;20553;-76
2023/01/13 13:57:42;;;;;;;0.20;0.20;;;;;;;6.72;100.00;95860.09;5056779;28;20136;-76
2023/01/13 14:00:34;;;;;;;0.20;0.20;;;;;;;6.58;100.00;95864.88;5053521;28;20032;-75
2023/01/13 14:03:27;;;;;;;0.10;0.10;;;;;;;6.41;100.00;95863.00;5056744;28;20083;-76
2023/01/13 14:06:23;;;;;;;0.20;0.20;;;;;;;6.30;100.00;95860.34;5055787;28;20077;-75
2023/01/13 14:09:16;;;;;;;0.10;0.10;;;;;;;6.37;100.00;95859.16;5055774;28;20123;-75
2023/01/13 14:12:07;;;;;;;0.10;0.10;;;;;;;6.33;100.00;95867.88;5054410;28;20036;-75
2023/01/13 14:14:56;;;;;;;0.20;0.20;;;;;;;6.29;100.00;95898.59;5055444;28;20052;-75
2023/01/13 14:17:42;;;;;;;0.20;0.20;;;;;;;6.21;100.00;95885.69;5055393;28;20437;-76
2023/01/13 14:20:28;;;;;;;0.20;0.20;;;;;;;6.33;100.00;95889.13;5054560;28;20424;-74
2023/01/13 14:23:16;;;;;;;0.13;0.13;;;;;;;6.29;100.00;95883.47;5056079;28;20105;-77
2023/01/13 14:26:08;;;;;;;0.20;0.20;;;;;;;6.33;100.00;95881.16;5055516;28;20028;-75
2023/01/13 14:28:56;;;;;;;0.20;0.20;;;;;;;6.22;100.00;95884.63;5053377;28;20353;-76